Time;durP1;ratioP1;P1;durP2;ratioP2;P2;SDS_P1;SDS_P2;PMS_P1;PMS_P2;Temp;Humidity;BMP_temperature;BMP_pressure;BME280_temperature;BME280_humidity;BME280_pressure;Samples;Min_cycle;Max_cycle;Signal;HPM_P1;HPM_P2
2022/02/15 00:03:40;;;;;;;25.25;13.20;;;;;;;-1.44;96.16;92117.19;4943075;29;20059;-89
2022/02/15 00:07:02;;;;;;;27.67;13.03;;;;;;;-1.03;96.32;92166.91;4928878;29;20043;-90
2022/02/15 00:10:15;;;;;;;32.95;14.18;;;;;;;-1.36;95.69;92108.38;4928175;29;20301;-90
2022/02/15 00:13:16;;;;;;;30.98;14.77;;;;;;;-1.10;96.09;92141.34;4910071;29;20039;-90
2022/02/15 00:16:23;;;;;;;;;;;;;;;;;;;;;
2022/02/15 00:19:17;;;;;;;;;;;;;;;;;;;;;
2022/02/15 00:22:20;;;;;;;;;;;;;;;;;;;;;
2022/02/15 00:25:27;;;;;;;;;;;;;;;;;;;;;
2022/02/15 00:28:18;;;;;;;23.17;10.88;;;;;;;-1.16;95.81;92108.06;4937628;29;20555;-90
2022/02/15 00:34:37;;;;;;;19.77;11.05;;;;;;;-1.42;95.88;92089.50;4925828;29;20047;-90
2022/02/15 00:37:31;;;;;;;23.67;10.80;;;;;;;-1.23;96.55;92126.13;4923565;29;20063;-89
2022/02/15 00:40:31;;;;;;;21.73;10.07;;;;;;;-1.43;96.44;92102.56;4923687;29;20043;-88
2022/02/15 00:43:31;;;;;;;20.13;10.13;;;;;;;-1.20;97.05;92130.81;4923032;28;20374;-89
2022/02/15 00:46:52;;;;;;;;;;;;;;;;;;;;;
2022/02/15 00:50:02;;;;;;;20.25;10.13;;;;;;;-1.25;96.61;92084.47;4949135;29;20537;-89
2022/02/15 00:53:12;;;;;;;18.50;9.60;;;;;;;-1.09;96.98;92111.28;4932925;29;20059;-89
2022/02/15 00:56:01;;;;;;;17.55;10.13;;;;;;;-1.37;96.59;92066.50;4961573;29;20107;-90
2022/02/15 00:59:10;;;;;;;;;;;;;;;;;;;;;
2022/02/15 01:01:51;;;;;;;19.42;10.60;;;;;;;-0.99;96.49;92136.41;4938142;29;20046;-89
2022/02/15 01:04:45;;;;;;;20.38;10.50;;;;;;;-1.43;96.57;92052.00;4928300;29;20059;-90
2022/02/15 01:07:35;;;;;;;21.08;10.20;;;;;;;-1.47;97.43;92054.22;4927372;29;20047;-89
2022/02/15 01:10:21;;;;;;;;;;;;;;;;;;;;;
2022/02/15 01:13:10;;;;;;;18.40;10.18;;;;;;;-1.44;97.22;92067.63;4916840;29;20130;-89
2022/02/15 01:16:18;;;;;;;19.75;9.98;;;;;;;-1.31;97.42;92085.38;4915410;29;20054;-89
2022/02/15 01:19:04;;;;;;;18.30;9.10;;;;;;;-1.47;97.70;92064.47;4911526;29;20494;-89
2022/02/15 01:21:40;;;;;;;19.48;9.68;;;;;;;-1.25;97.62;92102.47;4909615;29;20085;-89
2022/02/15 01:24:37;;;;;;;16.45;8.80;;;;;;;-1.43;97.64;92066.63;4924769;29;20126;-89
2022/02/15 01:27:46;;;;;;;22.33;9.65;;;;;;;-1.55;97.91;92049.44;4925316;29;20043;-89
2022/02/15 01:30:21;;;;;;;17.50;9.45;;;;;;;-1.09;98.60;92104.34;4911409;29;20493;-92
2022/02/15 01:33:14;;;;;;;18.70;9.90;;;;;;;-1.07;98.55;92104.91;4940374;29;20046;-89
2022/02/15 01:36:01;;;;;;;;;;;;;;;;;;;;;
2022/02/15 01:39:29;;;;;;;18.63;9.27;;;;;;;-1.32;98.55;92058.13;4938859;29;20051;-89
2022/02/15 01:42:20;;;;;;;;;;;;;;;;;;;;;
2022/02/15 01:48:12;;;;;;;;;;;;;;;;;;;;;
2022/02/15 01:51:18;;;;;;;20.15;9.73;;;;;;;-1.14;97.81;92052.88;4937185;29;20044;-89
2022/02/15 01:54:07;;;;;;;15.10;7.82;;;;;;;-1.02;97.81;92070.06;4907769;29;20070;-90
2022/02/15 01:57:08;;;;;;;17.35;8.30;;;;;;;-1.32;98.21;92019.63;4903778;29;20047;-90
2022/02/15 01:59:58;;;;;;;;;;;;;;;;;;;;;
2022/02/15 02:03:12;;;;;;;;;;;;;;;;;;;;;
2022/02/15 02:09:41;;;;;;;17.73;8.27;;;;;;;-1.26;98.52;92013.59;4949952;29;20054;-90
2022/02/15 02:12:47;;;;;;;19.05;9.13;;;;;;;-1.31;98.77;92008.31;4926407;29;20058;-90
2022/02/15 02:16:03;;;;;;;;;;;;;;;;;;;;;
2022/02/15 02:18:47;;;;;;;;;;;;;;;;;;;;;
2022/02/15 02:21:38;;;;;;;25.20;9.70;;;;;;;-1.17;98.77;92009.66;4976779;28;19924;-89
2022/02/15 02:24:34;;;;;;;18.27;9.30;;;;;;;-1.30;99.03;91992.72;4960099;28;20047;-89
2022/02/15 02:27:50;;;;;;;;;;;;;;;;;;;;;
2022/02/15 02:30:42;;;;;;;18.10;8.82;;;;;;;-1.08;97.90;92003.16;4959674;28;20053;-93
2022/02/15 02:33:16;;;;;;;17.55;9.40;;;;;;;-1.35;98.35;91955.84;4945751;28;20043;-91
2022/02/15 02:36:30;;;;;;;17.73;9.18;;;;;;;-0.96;98.03;92007.50;4911851;29;20095;-89
2022/02/15 02:39:09;;;;;;;;;;;;;;;;;;;;;
2022/02/15 02:41:55;;;;;;;19.10;8.18;;;;;;;-1.11;97.92;91977.91;4940231;29;20374;-89
2022/02/15 02:44:28;;;;;;;19.30;9.68;;;;;;;-1.00;98.03;91990.97;4939998;28;20500;-91
2022/02/15 02:47:24;;;;;;;;;;;;;;;;;;;;;
2022/02/15 02:50:07;;;;;;;;;;;;;;;;;;;;;
2022/02/15 02:52:56;;;;;;;17.17;8.68;;;;;;;-1.11;97.84;91951.47;4945550;28;20709;-90
2022/02/15 02:55:39;;;;;;;14.30;8.10;;;;;;;-1.03;97.96;91968.31;4944897;28;20047;-90
2022/02/15 02:58:45;;;;;;;;;;;;;;;;;;;;;
2022/02/15 03:01:25;;;;;;;13.02;7.38;;;;;;;-1.01;97.72;91964.50;4959004;28;20452;-90
2022/02/15 03:04:16;;;;;;;;;;;;;;;;;;;;;
2022/02/15 03:07:00;;;;;;;16.63;7.78;;;;;;;-1.08;97.45;91946.66;4956664;28;20045;-90
2022/02/15 03:09:34;;;;;;;16.80;8.20;;;;;;;-1.09;97.35;91945.06;4971903;28;20101;-90
2022/02/15 03:12:10;;;;;;;13.68;7.68;;;;;;;-0.84;96.60;91967.13;4940069;29;20038;-91
2022/02/15 03:14:53;;;;;;;;;;;;;;;;;;;;;
2022/02/15 03:17:45;;;;;;;15.20;7.83;;;;;;;-0.64;96.70;91997.56;4955438;29;20050;-93
2022/02/15 03:24:21;;;;;;;17.10;7.95;;;;;;;-1.03;97.22;91937.50;4931069;29;20058;-91
2022/02/15 03:27:08;;;;;;;;;;;;;;;;;;;;;
2022/02/15 03:30:20;;;;;;;16.10;8.23;;;;;;;-1.13;97.72;91923.41;4955070;29;20396;-90
2022/02/15 03:33:06;;;;;;;16.70;7.97;;;;;;;-1.03;97.59;91929.78;4955295;29;20106;-91
2022/02/15 03:36:01;;;;;;;13.80;8.07;;;;;;;-1.06;97.68;91924.09;4956028;29;20085;-90
2022/02/15 03:39:14;;;;;;;17.05;8.43;;;;;;;-0.98;97.41;91935.00;4954926;29;20043;-90
2022/02/15 03:44:56;;;;;;;;;;;;;;;;;;;;;
2022/02/15 03:47:57;;;;;;;;;;;;;;;;;;;;;
2022/02/15 03:51:12;;;;;;;11.82;6.45;;;;;;;-1.01;97.79;91909.75;4935279;29;20070;-91
2022/02/15 03:54:08;;;;;;;12.55;6.20;;;;;;;-0.86;98.30;91931.38;4927271;29;20035;-89
2022/02/15 03:57:01;;;;;;;11.07;6.38;;;;;;;-0.94;98.15;91920.69;4942961;29;20039;-90
2022/02/15 04:00:07;;;;;;;;;;;;;;;-0.53;98.00;91977.97;4953874;29;20047;-91
2022/02/15 04:03:12;;;;;;;;;;;;;;;;;;;;;
2022/02/15 04:06:13;;;;;;;;;;;;;;;;;;;;;
2022/02/15 04:10:01;;;;;;;;;;;;;;;;;;;;;
2022/02/15 04:12:33;;;;;;;7.70;4.05;;;;;;;-0.61;99.03;91952.63;4952594;28;20054;-91
2022/02/15 04:15:46;;;;;;;;;;;;;;;;;;;;;
2022/02/15 04:18:47;;;;;;;10.20;5.03;;;;;;;-0.93;99.28;91899.88;4974041;28;20034;-90
2022/02/15 04:21:37;;;;;;;9.48;4.75;;;;;;;-0.61;99.26;91943.09;4947237;28;20050;-90
2022/02/15 04:24:51;;;;;;;7.82;4.57;;;;;;;-0.83;98.95;91909.59;4942263;28;20047;-91
2022/02/15 04:27:22;;;;;;;6.63;3.70;;;;;;;-0.70;99.23;91934.22;4946391;28;20858;-88
2022/02/15 04:30:22;;;;;;;4.57;2.53;;;;;;;-0.57;99.12;91943.44;4957150;28;20045;-89
2022/02/15 04:33:32;;;;;;;6.00;3.03;;;;;;;-0.38;99.66;91970.50;4937471;29;20077;-89
2022/02/15 04:36:11;;;;;;;7.70;3.60;;;;;;;-0.60;99.63;91936.19;4937589;29;20260;-89
2022/02/15 04:42:38;;;;;;;9.73;3.55;;;;;;;-0.85;99.66;91893.63;4961136;28;20496;-89
2022/02/15 04:45:35;;;;;;;6.60;3.65;;;;;;;-0.73;99.09;91906.41;4944813;28;20045;-88
2022/02/15 04:48:24;;;;;;;;;;;;;;;;;;;;;
2022/02/15 04:51:04;;;;;;;8.60;4.80;;;;;;;-0.91;98.87;91899.66;4955906;28;20129;-88
2022/02/15 04:53:45;;;;;;;120.82;6.00;;;;;;;-0.84;98.81;91910.59;4927093;28;20059;-89
2022/02/15 04:56:37;;;;;;;31.88;4.53;;;;;;;-1.03;99.41;91893.81;4955177;28;20039;-91
2022/02/15 04:59:30;;;;;;;;;;;;;;;;;;;;;
2022/02/15 05:02:31;;;;;;;7.15;4.25;;;;;;;-1.03;100.00;91888.69;4967506;28;20484;-89
2022/02/15 05:05:23;;;;;;;;;;;;;;;;;;;;;
2022/02/15 05:08:17;;;;;;;;;;;;;;;;;;;;;
2022/02/15 05:11:05;;;;;;;4.03;2.40;;;;;;;-0.77;100.00;91882.94;4974331;28;20047;-90
2022/02/15 05:13:45;;;;;;;7.93;4.18;;;;;;;-0.60;99.47;91900.19;4930820;28;20559;-90
2022/02/15 05:17:18;;;;;;;13.07;5.20;;;;;;;-0.68;99.32;91878.97;4955612;28;20047;-90
2022/02/15 05:20:24;;;;;;;5.72;2.97;;;;;;;-0.24;98.51;91935.75;4960831;28;20046;-91
2022/02/15 05:26:18;;;;;;;6.30;2.65;;;;;;;-0.50;98.09;91880.56;4975050;28;20484;-91
2022/02/15 05:29:46;;;;;;;2.03;1.20;;;;;;;-0.34;97.31;91867.94;4941605;28;20086;-91
2022/02/15 05:33:07;;;;;;;6.88;2.97;;;;;;;-0.31;96.20;91863.13;4961348;28;20519;-90
2022/02/15 05:36:38;;;;;;;;;;;;;;;;;;;;;
2022/02/15 05:39:46;;;;;;;3.70;1.92;;;;;;;0.04;96.32;91889.59;4970526;28;20039;-91
2022/02/15 05:43:11;;;;;;;;;;;;;;;;;;;;;
2022/02/15 05:46:26;;;;;;;13.02;6.30;;;;;;;-0.04;95.77;91872.75;4952381;28;20047;-91
2022/02/15 05:49:40;;;;;;;;;;;;;;;;;;;;;
2022/02/15 05:52:46;;;;;;;;;;;;;;;;;;;;;
2022/02/15 05:55:55;;;;;;;;;;;;;;;;;;;;;
2022/02/15 05:59:23;;;;;;;6.75;3.60;;;;;;;-0.32;97.08;91840.97;4961820;28;20064;-92
2022/02/15 06:02:32;;;;;;;;;;;;;;;;;;;;;
2022/02/15 06:05:49;;;;;;;5.18;2.92;;;;;;;-0.33;96.78;91852.28;4966020;28;20042;-91
2022/02/15 06:08:41;;;;;;;6.40;2.30;;;;;;;-0.48;97.12;91827.09;4970561;28;20043;-88
2022/02/15 06:11:27;;;;;;;6.47;3.10;;;;;;;-0.27;97.20;91848.78;4946999;28;20062;-87
2022/02/15 06:14:03;;;;;;;3.47;1.80;;;;;;;-0.32;96.73;91830.69;4970280;28;20404;-87
2022/02/15 06:16:50;;;;;;;;;;;;;;;;;;;;;
2022/02/15 06:19:43;;;;;;;4.55;2.38;;;;;;;0.11;96.75;91869.59;4969228;28;20037;-88
2022/02/15 06:22:47;;;;;;;;;;;;;;;;;;;;;
2022/02/15 06:25:20;;;;;;;408.27;10.88;;;;;;;-0.71;95.21;91837.56;4958077;28;20030;-87
2022/02/15 06:28:12;;;;;;;71.65;8.07;;;;;;;-0.73;97.99;91873.00;4946062;28;20042;-88
2022/02/15 06:31:24;;;;;;;139.80;8.55;;;;;;;-0.75;98.48;91873.22;4977671;28;20030;-87
2022/02/15 06:34:00;;;;;;;118.85;10.38;;;;;;;-1.09;98.82;91824.34;4963041;28;20056;-86
2022/02/15 06:36:38;;;;;;;;;;;;;;;;;;;;;
2022/02/15 06:39:29;;;;;;;11.07;5.88;;;;;;;-0.99;100.00;91810.09;4972628;28;20034;-87
2022/02/15 06:42:16;;;;;;;11.60;5.25;;;;;;;-0.70;99.61;91839.09;4944094;28;20050;-87
2022/02/15 06:44:52;;;;;;;9.65;4.70;;;;;;;-0.52;99.75;91879.22;4958261;28;20088;-85
2022/02/15 06:47:27;;;;;;;10.32;5.28;;;;;;;-0.83;99.62;91837.63;4946218;28;20042;-86
2022/02/15 06:50:03;;;;;;;74.75;8.85;;;;;;;-0.77;98.77;91846.97;4942073;28;20055;-85
2022/02/15 06:52:45;;;;;;;19.45;7.47;;;;;;;-0.76;99.43;91863.97;4959263;28;20066;-86
2022/02/15 06:55:21;;;;;;;8.73;4.28;;;;;;;-0.88;99.54;91842.66;4958017;28;20489;-85
2022/02/15 06:58:00;;;;;;;7.28;2.95;;;;;;;-0.80;99.18;91834.59;4928292;28;20047;-86
2022/02/15 07:00:48;;;;;;;9.00;3.97;;;;;;;-0.72;99.58;91844.50;4958613;28;20149;-86
2022/02/15 07:03:33;;;;;;;7.07;3.83;;;;;;;-0.74;99.55;91833.66;4937084;29;20053;-87
2022/02/15 07:06:29;;;;;;;7.13;3.35;;;;;;;-0.40;99.59;91879.19;4951130;29;20051;-85
2022/02/15 07:09:02;;;;;;;7.68;4.30;;;;;;;-0.66;99.19;91827.34;4941482;29;20492;-86
2022/02/15 07:11:59;;;;;;;8.48;4.07;;;;;;;-0.52;99.13;91840.66;4925033;29;20048;-85
2022/02/15 07:14:31;;;;;;;7.93;4.43;;;;;;;-0.56;98.86;91835.22;4884948;29;20139;-85
2022/02/15 07:17:29;;;;;;;7.63;3.88;;;;;;;-0.48;98.63;91834.03;4930406;29;20040;-85
2022/02/15 07:19:58;;;;;;;9.10;4.85;;;;;;;-0.45;98.22;91838.72;4932497;29;20062;-85
2022/02/15 07:22:47;;;;;;;10.80;4.75;;;;;;;-0.31;97.95;91850.25;4911624;29;20040;-85
2022/02/15 07:25:50;;;;;;;11.45;5.53;;;;;;;-0.06;98.06;91878.13;4934159;29;20051;-85
2022/02/15 07:28:38;;;;;;;9.25;4.60;;;;;;;-0.09;97.88;91870.09;4950737;29;20044;-86
2022/02/15 07:31:16;;;;;;;10.35;5.30;;;;;;;-0.31;97.30;91823.75;4918828;29;20047;-85
2022/02/15 07:33:59;;;;;;;8.70;4.55;;;;;;;-0.02;97.30;91868.94;4909037;29;20051;-85
2022/02/15 07:36:38;;;;;;;9.25;4.13;;;;;;;-0.12;96.97;91844.84;4920091;29;20675;-87
2022/02/15 07:39:04;;;;;;;7.93;4.25;;;;;;;-0.14;96.50;91827.06;4935648;29;20086;-86
2022/02/15 07:41:35;;;;;;;12.07;4.32;;;;;;;-0.03;95.08;91849.34;4903492;29;20032;-85
2022/02/15 07:44:03;;;;;;;9.70;4.97;;;;;;;-0.18;94.85;91831.16;4903256;29;20043;-85
2022/02/15 07:46:42;;;;;;;10.35;5.63;;;;;;;0.01;95.84;91872.81;4919292;29;20042;-85
2022/02/15 07:49:13;;;;;;;10.88;5.40;;;;;;;-0.25;96.46;91836.47;4903785;29;20112;-87
2022/02/15 07:51:44;;;;;;;11.70;5.82;;;;;;;-0.22;96.39;91830.84;4918732;29;20047;-85
2022/02/15 07:54:16;;;;;;;10.93;4.95;;;;;;;0.09;95.94;91862.13;4918782;29;20111;-85
2022/02/15 07:56:49;;;;;;;9.05;5.13;;;;;;;-0.13;95.97;91826.06;4919203;29;20043;-85
2022/02/15 07:59:23;;;;;;;10.77;5.22;;;;;;;0.17;95.85;91872.00;4903254;29;20048;-85
2022/02/15 08:02:00;;;;;;;9.25;5.10;;;;;;;0.01;96.07;91843.75;4902332;29;20486;-86
2022/02/15 08:04:37;;;;;;;;;;;;;;;;;;;;;
2022/02/15 08:07:15;;;;;;;8.82;4.65;;;;;;;0.51;95.10;91887.38;4934236;29;20039;-85
2022/02/15 08:09:41;;;;;;;10.52;4.78;;;;;;;0.35;94.67;91845.22;4918287;29;20035;-84
2022/02/15 08:12:17;;;;;;;14.32;5.63;;;;;;;0.46;93.79;91874.44;4933032;29;20034;-85
2022/02/15 08:14:46;;;;;;;15.35;6.78;;;;;;;0.25;94.20;91828.84;4902596;29;20043;-85
2022/02/15 08:17:16;;;;;;;9.07;4.35;;;;;;;0.37;93.36;91855.28;4933876;29;20070;-85
2022/02/15 08:19:46;;;;;;;10.75;4.97;;;;;;;0.65;93.66;91892.16;4902011;29;20027;-85
2022/02/15 08:22:17;;;;;;;10.65;5.00;;;;;;;0.57;93.39;91875.34;4949517;29;20123;-84
2022/02/15 08:24:45;;;;;;;9.30;4.63;;;;;;;0.37;93.28;91842.41;4910914;29;20040;-84
2022/02/15 08:27:10;;;;;;;9.82;4.97;;;;;;;0.81;93.04;91889.53;4918085;29;20076;-85
2022/02/15 08:29:44;;;;;;;11.48;5.10;;;;;;;0.75;92.61;91871.69;4917978;29;20747;-85
2022/02/15 08:32:12;;;;;;;11.60;5.75;;;;;;;0.74;92.43;91867.53;4917184;29;20059;-85
2022/02/15 08:34:39;;;;;;;10.65;5.57;;;;;;;0.56;92.27;91841.09;4917923;29;20085;-84
2022/02/15 08:37:14;;;;;;;9.68;5.28;;;;;;;0.86;91.57;91880.28;4917429;29;20062;-85
2022/02/15 08:39:46;;;;;;;11.13;4.97;;;;;;;0.62;92.13;91883.91;4917735;29;20047;-84
2022/02/15 08:42:12;;;;;;;14.18;5.18;;;;;;;0.87;91.93;91900.66;4917360;29;20040;-86
2022/02/15 08:44:40;;;;;;;8.63;4.57;;;;;;;0.73;91.56;91877.06;4933764;29;20040;-85
2022/02/15 08:47:09;;;;;;;9.73;4.93;;;;;;;0.95;92.09;91910.56;4901632;29;20051;-87
2022/02/15 08:49:37;;;;;;;11.40;5.57;;;;;;;0.75;92.04;91863.97;4901157;29;20067;-86
2022/02/15 08:52:06;;;;;;;14.73;6.72;;;;;;;1.00;91.58;91892.56;4916381;29;20111;-85
2022/02/15 08:54:32;;;;;;;12.25;5.95;;;;;;;1.14;91.71;91907.66;4933537;29;20122;-84
2022/02/15 08:56:58;;;;;;;13.65;6.85;;;;;;;0.95;91.28;91866.75;4885058;29;20131;-85
2022/02/15 08:59:28;;;;;;;11.02;5.45;;;;;;;0.94;90.68;91856.69;4933427;29;20079;-86
2022/02/15 09:01:56;;;;;;;16.83;7.10;;;;;;;0.87;90.94;91846.56;4917381;29;20101;-86
2022/02/15 09:04:21;;;;;;;16.70;8.30;;;;;;;1.17;90.56;91877.03;4916117;29;20043;-85
2022/02/15 09:06:47;;;;;;;22.73;8.90;;;;;;;1.07;90.36;91858.88;4971413;28;20051;-85
2022/02/15 09:09:16;;;;;;;13.93;6.25;;;;;;;1.08;89.70;91851.91;4940037;29;20077;-85
2022/02/15 09:11:43;;;;;;;16.02;7.32;;;;;;;1.33;90.05;91890.03;4940078;29;20421;-84
2022/02/15 09:14:21;;;;;;;15.70;7.22;;;;;;;1.16;88.97;91852.25;4924282;29;20075;-84
2022/02/15 09:16:49;;;;;;;13.55;6.10;;;;;;;1.17;89.36;91837.56;4939392;29;20094;-86
2022/02/15 09:19:23;;;;;;;13.35;6.03;;;;;;;1.15;88.89;91832.66;4924504;29;20035;-86
2022/02/15 09:21:50;;;;;;;14.00;6.10;;;;;;;1.11;88.92;91823.09;4972196;28;20046;-85
2022/02/15 09:24:17;;;;;;;13.27;6.30;;;;;;;1.34;88.72;91843.38;4923472;29;20049;-85
2022/02/15 09:26:51;;;;;;;17.15;6.22;;;;;;;1.28;88.63;91831.47;4939168;29;20039;-85
2022/02/15 09:29:22;;;;;;;11.65;5.75;;;;;;;1.58;87.36;91866.31;4924272;29;20129;-86
2022/02/15 09:31:48;;;;;;;10.93;5.95;;;;;;;1.56;88.35;91868.34;4923629;29;20047;-86
2022/02/15 09:34:14;;;;;;;9.68;5.05;;;;;;;1.34;87.62;91820.19;4923361;29;20036;-85
2022/02/15 09:36:40;;;;;;;10.93;5.10;;;;;;;1.61;87.71;91881.28;4923552;29;20038;-85
2022/02/15 09:39:09;;;;;;;10.27;5.35;;;;;;;1.51;87.78;91863.91;4923665;29;20039;-86
2022/02/15 09:41:41;;;;;;;12.38;5.43;;;;;;;1.48;87.91;91871.34;4939651;29;20050;-84
2022/02/15 09:44:09;;;;;;;12.98;5.47;;;;;;;1.54;88.33;91875.56;4923569;29;20046;-84
2022/02/15 09:46:42;;;;;;;11.45;5.38;;;;;;;1.29;88.83;91840.78;4923470;29;20058;-85
2022/02/15 09:52:01;;;;;;;12.98;5.97;;;;;;;1.87;88.29;91890.00;4956252;29;20046;-85
2022/02/15 09:54:28;;;;;;;12.77;6.05;;;;;;;2.08;87.98;91903.81;4939315;29;20408;-84
2022/02/15 09:56:54;;;;;;;15.02;7.35;;;;;;;2.22;86.97;91917.09;4939310;29;20035;-86
2022/02/15 09:59:20;;;;;;;24.80;8.10;;;;;;;2.32;86.32;91917.16;4908046;29;20077;-85
2022/02/15 10:01:47;;;;;;;17.65;7.55;;;;;;;2.36;85.60;91912.25;4907683;29;20043;-86
2022/02/15 10:04:12;;;;;;;21.25;8.30;;;;;;;2.53;85.53;91928.38;4955949;29;20055;-84
2022/02/15 10:06:40;;;;;;;19.85;7.85;;;;;;;2.57;84.96;91919.09;4938782;29;20047;-85
2022/02/15 10:09:08;;;;;;;9.88;4.75;;;;;;;2.47;84.36;91929.38;4923288;29;20047;-84
2022/02/15 10:11:40;;;;;;;14.00;5.60;;;;;;;2.31;85.16;91894.94;4939871;29;20039;-86
2022/02/15 10:14:08;;;;;;;7.70;4.43;;;;;;;2.57;82.58;91944.94;4939011;29;20039;-85
2022/02/15 10:16:51;;;;;;;9.57;4.30;;;;;;;2.48;83.08;91930.94;4955285;28;20054;-85
2022/02/15 10:19:26;;;;;;;8.13;4.05;;;;;;;2.41;83.82;91914.88;4956130;29;20093;-85
2022/02/15 10:22:01;;;;;;;22.92;8.85;;;;;;;2.48;84.36;91920.59;4939242;29;20106;-85
2022/02/15 10:24:29;;;;;;;13.35;6.88;;;;;;;2.66;84.22;91938.28;4939386;29;20040;-85
2022/02/15 10:27:23;;;;;;;15.18;5.60;;;;;;;2.78;83.74;91950.22;4939595;29;20034;-85
2022/02/15 10:29:48;;;;;;;9.50;4.38;;;;;;;2.67;83.68;91934.66;4940423;29;20070;-85
2022/02/15 10:32:17;;;;;;;9.75;4.43;;;;;;;2.88;83.67;91952.84;4907500;29;20493;-85
2022/02/15 10:34:49;;;;;;;9.60;4.38;;;;;;;2.87;83.49;91946.91;4923763;29;20043;-85
2022/02/15 10:37:16;;;;;;;;;;;;;;;2.90;83.36;91941.25;4923541;29;20107;-86
2022/02/15 10:39:54;;;;;;;11.13;5.40;;;;;;;2.99;83.76;91946.69;4923642;29;19918;-86
2022/02/15 10:42:21;;;;;;;13.68;5.32;;;;;;;3.02;83.57;91942.84;4936609;29;20043;-86
2022/02/15 10:44:54;;;;;;;9.77;4.75;;;;;;;3.08;83.02;91949.56;4931553;29;20085;-85
2022/02/15 10:47:23;;;;;;;6.28;3.83;;;;;;;3.19;82.89;91953.75;4923342;29;20039;-86
2022/02/15 10:49:49;;;;;;;6.97;3.80;;;;;;;3.05;82.02;91952.66;4904036;29;20047;-86
2022/02/15 10:52:15;;;;;;;9.07;4.28;;;;;;;2.93;83.05;91950.31;4959855;28;20047;-85
2022/02/15 10:54:42;;;;;;;12.73;5.18;;;;;;;3.04;83.26;91951.91;4942734;28;20038;-86
2022/02/15 10:57:12;;;;;;;9.75;4.80;;;;;;;3.11;83.57;91960.19;4949200;29;20130;-87
2022/02/15 10:59:41;;;;;;;13.80;5.78;;;;;;;3.21;83.63;91956.88;4938757;29;20612;-88
2022/02/15 11:02:13;;;;;;;17.45;6.45;;;;;;;3.18;82.54;91943.69;4930529;28;20073;-85
2022/02/15 11:04:40;;;;;;;12.75;5.30;;;;;;;3.37;83.17;91956.91;4949413;29;20099;-86
2022/02/15 11:07:09;;;;;;;27.63;9.77;;;;;;;3.34;82.77;91946.03;4956535;29;20126;-86
2022/02/15 11:09:44;;;;;;;20.38;8.30;;;;;;;3.52;82.56;91960.31;4939027;29;20053;-85
2022/02/15 11:12:20;;;;;;;8.57;4.07;;;;;;;3.53;82.75;91951.53;4938843;29;20514;-85
2022/02/15 11:14:54;;;;;;;15.27;6.80;;;;;;;3.50;82.39;91926.16;4936720;29;20043;-87
2022/02/15 11:17:20;;;;;;;9.98;3.83;;;;;;;3.53;82.66;91935.22;4922310;29;20027;-86
2022/02/15 11:19:59;;;;;;;7.35;2.97;;;;;;;3.63;82.05;91929.28;4922836;29;20046;-87
2022/02/15 11:22:25;;;;;;;5.85;3.03;;;;;;;3.74;81.17;91946.41;4938274;29;20142;-86
2022/02/15 11:24:53;;;;;;;8.25;3.20;;;;;;;3.61;80.86;91926.19;4923404;29;20131;-86
2022/02/15 11:27:21;;;;;;;4.50;2.08;;;;;;;3.87;80.69;91951.06;4932184;29;20024;-87
2022/02/15 11:29:56;;;;;;;3.33;1.48;;;;;;;3.90;80.17;91929.84;4935081;29;20048;-86
2022/02/15 11:32:33;;;;;;;5.88;2.42;;;;;;;3.82;80.73;91916.63;4917246;29;20048;-87
2022/02/15 11:35:09;;;;;;;6.75;2.97;;;;;;;4.11;79.95;91935.00;4968710;28;20484;-87
2022/02/15 11:37:35;;;;;;;6.10;2.80;;;;;;;4.05;79.59;91926.47;4973801;28;20042;-86
2022/02/15 11:40:09;;;;;;;6.32;2.80;;;;;;;4.17;79.11;91934.75;4944210;29;20035;-87
2022/02/15 11:42:51;;;;;;;6.63;3.83;;;;;;;4.30;79.23;91936.06;4921951;29;20039;-85
2022/02/15 11:45:28;;;;;;;3.42;1.83;;;;;;;4.29;78.38;91920.75;4922316;29;20493;-86
2022/02/15 11:48:04;;;;;;;15.25;6.32;;;;;;;4.44;78.26;91933.69;4937538;29;20035;-87
2022/02/15 11:50:43;;;;;;;28.48;10.82;;;;;;;4.45;78.26;91911.91;4917331;29;20036;-87
2022/02/15 11:53:11;;;;;;;22.23;9.75;;;;;;;4.62;76.97;91924.59;4945208;28;20095;-87
2022/02/15 11:55:38;;;;;;;13.23;5.15;;;;;;;4.69;76.79;91925.09;4937162;29;20126;-87
2022/02/15 11:58:08;;;;;;;4.97;2.80;;;;;;;4.64;76.03;91914.75;4937850;29;20141;-87
2022/02/15 12:00:36;;;;;;;5.25;2.95;;;;;;;4.82;76.12;91933.34;4941274;28;20129;-87
2022/02/15 12:03:03;;;;;;;5.20;2.50;;;;;;;4.72;75.46;91910.81;4967266;28;20051;-87
2022/02/15 12:05:31;;;;;;;3.50;1.92;;;;;;;4.91;75.82;91921.38;4923815;28;20039;-87
2022/02/15 12:07:58;;;;;;;4.22;2.58;;;;;;;4.84;75.38;91913.91;4926120;28;20054;-86
2022/02/15 12:10:24;;;;;;;4.22;2.30;;;;;;;4.95;75.43;91918.03;4925676;28;20041;-87
2022/02/15 12:12:52;;;;;;;3.90;2.05;;;;;;;5.02;74.39;91922.91;4941364;28;20488;-89
2022/02/15 12:15:18;;;;;;;3.50;1.52;;;;;;;5.12;75.06;91933.25;4957110;28;20035;-87
2022/02/15 12:17:51;;;;;;;8.45;2.65;;;;;;;5.03;75.17;91903.72;4956597;28;20140;-88
2022/02/15 12:20:32;;;;;;;;;;;;;;;;;;;;;
2022/02/15 12:23:12;;;;;;;5.35;1.85;;;;;;;4.98;73.46;91875.97;4937685;29;20047;-87
2022/02/15 12:26:14;;;;;;;17.00;4.20;;;;;;;5.01;73.00;91870.25;4924032;29;20130;-88
2022/02/15 12:28:50;;;;;;;13.82;5.22;;;;;;;5.08;73.33;91867.38;4954021;28;20449;-88
2022/02/15 12:31:57;;;;;;;6.10;2.33;;;;;;;5.57;70.70;91946.28;4926335;29;20051;-88
2022/02/15 12:34:46;;;;;;;4.05;1.38;;;;;;;5.50;67.43;91897.25;4921272;29;20050;-88
2022/02/15 12:37:45;;;;;;;2.55;1.38;;;;;;;5.15;66.66;91873.03;4954365;29;20035;-87
2022/02/15 12:40:21;;;;;;;26.88;13.23;;;;;;;5.45;67.95;91894.69;4936584;29;20054;-88
2022/02/15 12:42:59;;;;;;;10.50;5.75;;;;;;;5.47;66.62;91895.22;4954329;29;20039;-87
2022/02/15 12:45:56;;;;;;;;;;;;;;;;;;;;;
2022/02/15 12:48:45;;;;;;;24.10;9.38;;;;;;;5.63;68.15;91904.47;4954064;29;20045;-88
2022/02/15 12:51:35;;;;;;;10.30;4.82;;;;;;;5.54;67.90;91898.28;4938601;28;20504;-89
2022/02/15 12:57:28;;;;;;;5.00;2.08;;;;;;;5.62;60.33;91884.72;4959495;28;20038;-88
2022/02/15 13:00:11;;;;;;;6.93;2.53;;;;;;;5.84;63.36;91917.31;4939935;28;20122;-88
2022/02/15 13:02:48;;;;;;;6.93;3.38;;;;;;;5.87;64.11;91921.19;4936293;29;20043;-88
2022/02/15 13:05:42;;;;;;;8.35;3.03;;;;;;;5.56;65.10;91896.19;4921947;29;20062;-88
2022/02/15 13:08:47;;;;;;;7.55;3.30;;;;;;;5.53;61.91;91901.91;4936765;29;20040;-89
2022/02/15 13:11:45;;;;;;;;;;;;;;;;;;;;;
2022/02/15 13:17:57;;;;;;;;;;;;;;;;;;;;;
2022/02/15 13:20:42;;;;;;;9.52;4.97;;;;;;;5.37;65.41;91919.38;4934681;29;20489;-88
2022/02/15 13:23:15;;;;;;;5.10;2.40;;;;;;;5.27;64.84;91903.88;4954627;28;20121;-88
2022/02/15 13:25:57;;;;;;;6.78;3.13;;;;;;;5.34;64.65;91921.75;4951474;29;20056;-89
2022/02/15 13:29:01;;;;;;;3.92;2.20;;;;;;;5.25;63.22;91894.81;4922043;29;20040;-89
2022/02/15 13:31:58;;;;;;;3.85;1.80;;;;;;;5.33;64.06;91899.44;4904333;29;20060;-89
2022/02/15 13:34:43;;;;;;;4.32;2.25;;;;;;;5.31;64.10;91901.50;4935413;29;20548;-88
2022/02/15 13:38:12;;;;;;;;;;;;;;;;;;;;;
2022/02/15 13:41:44;;;;;;;;;;;;;;;;;;;;;
2022/02/15 13:44:43;;;;;;;2.65;1.40;;;;;;;5.85;62.52;91950.00;4951156;29;20542;-90
2022/02/15 13:47:52;;;;;;;6.35;1.60;;;;;;;5.74;56.05;91927.75;4936980;28;20061;-89
2022/02/15 13:50:59;;;;;;;;;;;;;;;;;;;;;
2022/02/15 13:53:25;;;;;;;3.38;1.45;;;;;;;5.61;56.00;91937.69;4947555;28;20039;-90
2022/02/15 13:56:16;;;;;;;7.72;4.05;;;;;;;5.53;58.74;91922.69;4963005;28;20032;-91
2022/02/15 13:59:19;;;;;;;4.45;2.00;;;;;;;5.55;60.56;91910.22;4978609;28;20043;-89
2022/02/15 14:02:17;;;;;;;6.07;3.30;;;;;;;5.64;62.68;91924.16;4963881;28;20050;-89
2022/02/15 14:13:25;;;;;;;4.60;2.10;;;;;;;6.04;59.99;91963.19;4958448;29;20038;-90
2022/02/15 14:15:51;;;;;;;3.20;1.60;;;;;;;6.35;57.84;91992.34;4987421;28;20452;-73
2022/02/15 14:18:17;;;;;;;1.90;1.27;;;;;;;6.57;58.42;92001.50;4974981;28;20043;-74
2022/02/15 14:20:43;;;;;;;1.90;1.10;;;;;;;6.67;54.36;91996.25;4969525;28;20287;-73
2022/02/15 14:23:08;;;;;;;3.72;2.10;;;;;;;6.86;55.97;91989.28;4974441;28;20046;-74
2022/02/15 14:25:34;;;;;;;3.42;1.67;;;;;;;6.87;57.22;91996.06;4962491;28;20097;-73
2022/02/15 14:28:03;;;;;;;2.60;1.50;;;;;;;7.09;56.72;92008.59;4953894;29;20047;-73
2022/02/15 14:30:29;;;;;;;3.85;1.40;;;;;;;6.97;50.29;92000.38;4960526;28;20031;-72
2022/02/15 14:32:56;;;;;;;2.25;1.30;;;;;;;7.27;50.40;91998.50;4971150;28;20027;-74
2022/02/15 14:35:22;;;;;;;2.30;1.42;;;;;;;7.83;51.76;92004.91;4937694;29;20489;-73
2022/02/15 14:37:47;;;;;;;2.42;1.30;;;;;;;8.08;51.33;92006.38;4955038;28;20035;-72
2022/02/15 14:40:15;;;;;;;3.33;1.50;;;;;;;8.27;45.55;92003.78;4953780;29;20031;-73
2022/02/15 14:42:40;;;;;;;2.88;1.70;;;;;;;8.45;45.73;92008.25;4953339;29;20046;-74
2022/02/15 14:45:08;;;;;;;2.50;1.40;;;;;;;8.61;43.27;92005.41;4954699;28;20043;-73
2022/02/15 14:47:34;;;;;;;3.60;1.75;;;;;;;8.81;46.53;92009.53;4965779;28;20480;-74